sensor_id;sensor_type;location;lat;lon;timestamp;temperature;humidity
16388;DHT22;8303;53.446;9.988;2023-05-10T04:50:17;11.40;99.90
16388;DHT22;8303;53.446;9.988;2023-05-10T04:52:44;11.50;99.90
16388;DHT22;8303;53.446;9.988;2023-05-10T04:55:11;11.50;99.90
16388;DHT22;8303;53.446;9.988;2023-05-10T04:57:39;11.50;99.90
16388;DHT22;8303;53.446;9.988;2023-05-10T05:00:07;11.70;99.90
16388;DHT22;8303;53.446;9.988;2023-05-10T05:02:34;11.80;99.90
16388;DHT22;8303;53.446;9.988;2023-05-10T05:05:01;11.90;99.90
16388;DHT22;8303;53.446;9.988;2023-05-10T05:07:29;12.00;99.90
16388;DHT22;8303;53.446;9.988;2023-05-10T05:09:56;12.10;99.90
16388;DHT22;8303;53.446;9.988;2023-05-10T05:12:23;12.20;99.90
16388;DHT22;8303;53.446;9.988;2023-05-10T05:14:50;12.40;99.90
16388;DHT22;8303;53.446;9.988;2023-05-10T05:17:17;12.50;99.90
16388;DHT22;8303;53.446;9.988;2023-05-10T05:19:44;12.40;99.90
16388;DHT22;8303;53.446;9.988;2023-05-10T05:22:10;12.50;99.90
16388;DHT22;8303;53.446;9.988;2023-05-10T05:24:39;12.50;99.90
16388;DHT22;8303;53.446;9.988;2023-05-10T05:27:06;12.60;99.90
16388;DHT22;8303;53.446;9.988;2023-05-10T05:29:33;12.60;99.90
16388;DHT22;8303;53.446;9.988;2023-05-10T05:32:00;12.70;99.90
16388;DHT22;8303;53.446;9.988;2023-05-10T05:34:27;12.90;99.90
16388;DHT22;8303;53.446;9.988;2023-05-10T05:36:54;13.20;99.90
16388;DHT22;8303;53.446;9.988;2023-05-10T05:39:21;13.50;99.90
16388;DHT22;8303;53.446;9.988;2023-05-10T05:41:50;13.70;99.90
16388;DHT22;8303;53.446;9.988;2023-05-10T05:44:17;14.00;99.90
16388;DHT22;8303;53.446;9.988;2023-05-10T05:46:44;14.10;99.90
16388;DHT22;8303;53.446;9.988;2023-05-10T05:49:14;14.00;99.90
16388;DHT22;8303;53.446;9.988;2023-05-10T05:51:45;14.10;99.90
16388;DHT22;8303;53.446;9.988;2023-05-10T05:54:13;14.20;99.90
16388;DHT22;8303;53.446;9.988;2023-05-10T05:56:40;14.20;99.90
16388;DHT22;8303;53.446;9.988;2023-05-10T05:59:08;14.20;99.90
16388;DHT22;8303;53.446;9.988;2023-05-10T06:01:35;14.30;99.90
16388;DHT22;8303;53.446;9.988;2023-05-10T06:04:02;14.40;99.90
16388;DHT22;8303;53.446;9.988;2023-05-10T06:06:29;14.60;99.90
16388;DHT22;8303;53.446;9.988;2023-05-10T06:08:57;14.70;99.90
16388;DHT22;8303;53.446;9.988;2023-05-10T06:11:25;14.80;99.90
16388;DHT22;8303;53.446;9.988;2023-05-10T06:13:52;14.80;99.90
16388;DHT22;8303;53.446;9.988;2023-05-10T06:16:20;15.00;99.90
16388;DHT22;8303;53.446;9.988;2023-05-10T06:18:48;15.00;99.90
16388;DHT22;8303;53.446;9.988;2023-05-10T06:21:15;15.00;99.90
16388;DHT22;8303;53.446;9.988;2023-05-10T06:23:41;15.00;99.90
16388;DHT22;8303;53.446;9.988;2023-05-10T06:26:09;15.00;99.90
16388;DHT22;8303;53.446;9.988;2023-05-10T06:28:36;15.00;99.90
16388;DHT22;8303;53.446;9.988;2023-05-10T06:31:03;15.10;99.90
16388;DHT22;8303;53.446;9.988;2023-05-10T06:33:32;15.10;99.90
16388;DHT22;8303;53.446;9.988;2023-05-10T06:35:59;15.20;99.90
16388;DHT22;8303;53.446;9.988;2023-05-10T06:38:26;15.30;99.90
16388;DHT22;8303;53.446;9.988;2023-05-10T06:40:53;15.50;99.90
16388;DHT22;8303;53.446;9.988;2023-05-10T06:43:20;15.70;99.90
16388;DHT22;8303;53.446;9.988;2023-05-10T06:45:47;15.90;99.90
16388;DHT22;8303;53.446;9.988;2023-05-10T06:48:14;15.90;99.90
16388;DHT22;8303;53.446;9.988;2023-05-10T06:50:42;16.10;99.90
16388;DHT22;8303;53.446;9.988;2023-05-10T06:53:10;16.40;99.90
16388;DHT22;8303;53.446;9.988;2023-05-10T06:55:37;16.60;99.90
16388;DHT22;8303;53.446;9.988;2023-05-10T06:58:04;16.80;99.80
16388;DHT22;8303;53.446;9.988;2023-05-10T07:00:31;17.00;99.90
16388;DHT22;8303;53.446;9.988;2023-05-10T07:02:58;17.10;99.10
16388;DHT22;8303;53.446;9.988;2023-05-10T07:05:25;17.10;99.90
16388;DHT22;8303;53.446;9.988;2023-05-10T07:07:54;17.00;99.30
16388;DHT22;8303;53.446;9.988;2023-05-10T07:10:21;17.00;97.10
16388;DHT22;8303;53.446;9.988;2023-05-10T07:12:48;17.10;97.80
16388;DHT22;8303;53.446;9.988;2023-05-10T07:15:15;17.00;97.40
16388;DHT22;8303;53.446;9.988;2023-05-10T07:17:42;17.10;97.30
16388;DHT22;8303;53.446;9.988;2023-05-10T07:20:10;17.30;97.50
16388;DHT22;8303;53.446;9.988;2023-05-10T07:22:37;17.30;97.00
16388;DHT22;8303;53.446;9.988;2023-05-10T07:25:06;17.60;99.90
16388;DHT22;8303;53.446;9.988;2023-05-10T07:27:33;17.80;96.80
16388;DHT22;8303;53.446;9.988;2023-05-10T07:30:00;17.90;96.80
16388;DHT22;8303;53.446;9.988;2023-05-10T07:32:27;17.90;95.80
16388;DHT22;8303;53.446;9.988;2023-05-10T07:34:54;17.80;95.90
16388;DHT22;8303;53.446;9.988;2023-05-10T07:37:21;17.70;95.60
16388;DHT22;8303;53.446;9.988;2023-05-10T07:39:48;17.70;99.90
16388;DHT22;8303;53.446;9.988;2023-05-10T07:42:16;17.60;95.10
16388;DHT22;8303;53.446;9.988;2023-05-10T07:44:43;17.50;95.40
16388;DHT22;8303;53.446;9.988;2023-05-10T07:47:10;17.30;95.10
16388;DHT22;8303;53.446;9.988;2023-05-10T07:49:37;17.20;95.30
16388;DHT22;8303;53.446;9.988;2023-05-10T07:52:04;17.20;96.60
16388;DHT22;8303;53.446;9.988;2023-05-10T07:54:31;17.20;98.20
16388;DHT22;8303;53.446;9.988;2023-05-10T07:56:59;17.40;98.20
16388;DHT22;8303;53.446;9.988;2023-05-10T07:59:28;17.40;98.30
16388;DHT22;8303;53.446;9.988;2023-05-10T08:01:55;17.50;96.50
16388;DHT22;8303;53.446;9.988;2023-05-10T08:04:21;17.60;97.20
16388;DHT22;8303;53.446;9.988;2023-05-10T08:06:48;17.60;97.50
16388;DHT22;8303;53.446;9.988;2023-05-10T08:09:16;17.80;98.00
16388;DHT22;8303;53.446;9.988;2023-05-10T08:11:43;17.80;98.00
16388;DHT22;8303;53.446;9.988;2023-05-10T08:14:10;17.70;98.50
16388;DHT22;8303;53.446;9.988;2023-05-10T08:16:38;18.00;99.90
16388;DHT22;8303;53.446;9.988;2023-05-10T08:19:05;18.00;98.20
16388;DHT22;8303;53.446;9.988;2023-05-10T08:21:32;18.00;97.70
16388;DHT22;8303;53.446;9.988;2023-05-10T08:23:59;18.10;98.20
16388;DHT22;8303;53.446;9.988;2023-05-10T08:26:26;18.00;96.50
16388;DHT22;8303;53.446;9.988;2023-05-10T08:28:53;17.90;97.30
16388;DHT22;8303;53.446;9.988;2023-05-10T08:31:19;17.70;98.30
16388;DHT22;8303;53.446;9.988;2023-05-10T08:33:48;17.90;98.80
16388;DHT22;8303;53.446;9.988;2023-05-10T08:36:16;17.80;98.70
16388;DHT22;8303;53.446;9.988;2023-05-10T08:38:47;17.80;99.70
16388;DHT22;8303;53.446;9.988;2023-05-10T08:41:13;18.00;99.90
16388;DHT22;8303;53.446;9.988;2023-05-10T08:43:41;18.30;99.90
16388;DHT22;8303;53.446;9.988;2023-05-10T08:46:14;18.50;99.90
16388;DHT22;8303;53.446;9.988;2023-05-10T08:48:43;18.50;99.90
16388;DHT22;8303;53.446;9.988;2023-05-10T08:51:14;18.10;99.90
16388;DHT22;8303;53.446;9.988;2023-05-10T08:53:42;17.90;99.90
16388;DHT22;8303;53.446;9.988;2023-05-10T08:56:09;18.10;99.90
16388;DHT22;8303;53.446;9.988;2023-05-10T08:58:36;18.00;99.90
16388;DHT22;8303;53.446;9.988;2023-05-10T09:01:03;17.90;99.90
16388;DHT22;8303;53.446;9.988;2023-05-10T09:03:31;18.00;99.90
16388;DHT22;8303;53.446;9.988;2023-05-10T09:05:58;17.70;99.90
16388;DHT22;8303;53.446;9.988;2023-05-10T09:08:26;17.80;99.90
16388;DHT22;8303;53.446;9.988;2023-05-10T09:10:54;17.70;99.90
16388;DHT22;8303;53.446;9.988;2023-05-10T09:13:22;17.70;99.90
16388;DHT22;8303;53.446;9.988;2023-05-10T09:15:51;17.50;99.90
16388;DHT22;8303;53.446;9.988;2023-05-10T09:18:18;17.60;99.90
16388;DHT22;8303;53.446;9.988;2023-05-10T09:20:45;17.40;99.90
16388;DHT22;8303;53.446;9.988;2023-05-10T09:23:12;17.30;99.90
16388;DHT22;8303;53.446;9.988;2023-05-10T09:25:41;17.30;99.90
16388;DHT22;8303;53.446;9.988;2023-05-10T09:28:09;17.20;99.90
16388;DHT22;8303;53.446;9.988;2023-05-10T09:30:36;17.00;99.90
16388;DHT22;8303;53.446;9.988;2023-05-10T09:33:03;16.60;99.90
16388;DHT22;8303;53.446;9.988;2023-05-10T09:35:31;16.40;99.90
16388;DHT22;8303;53.446;9.988;2023-05-10T09:38:00;16.10;99.90
16388;DHT22;8303;53.446;9.988;2023-05-10T09:40:28;15.90;99.90
16388;DHT22;8303;53.446;9.988;2023-05-10T09:42:58;16.00;99.90
16388;DHT22;8303;53.446;9.988;2023-05-10T09:45:29;16.10;99.90
16388;DHT22;8303;53.446;9.988;2023-05-10T09:47:57;15.90;99.90
16388;DHT22;8303;53.446;9.988;2023-05-10T09:50:24;15.70;99.90
16388;DHT22;8303;53.446;9.988;2023-05-10T09:52:53;15.50;99.90
16388;DHT22;8303;53.446;9.988;2023-05-10T09:55:22;15.40;99.90
16388;DHT22;8303;53.446;9.988;2023-05-10T09:57:58;15.20;99.90
16388;DHT22;8303;53.446;9.988;2023-05-10T10:00:28;15.00;99.90
16388;DHT22;8303;53.446;9.988;2023-05-10T10:02:56;15.00;99.90
16388;DHT22;8303;53.446;9.988;2023-05-10T10:05:28;14.90;99.90
16388;DHT22;8303;53.446;9.988;2023-05-10T10:07:55;14.90;99.90
16388;DHT22;8303;53.446;9.988;2023-05-10T10:10:23;15.00;99.90
16388;DHT22;8303;53.446;9.988;2023-05-10T10:12:51;14.90;1.00
16388;DHT22;8303;53.446;9.988;2023-05-10T10:15:18;14.80;1.00
16388;DHT22;8303;53.446;9.988;2023-05-10T10:17:46;14.90;1.00
16388;DHT22;8303;53.446;9.988;2023-05-10T10:20:14;15.00;1.00
16388;DHT22;8303;53.446;9.988;2023-05-10T10:22:42;15.00;1.00
16388;DHT22;8303;53.446;9.988;2023-05-10T10:25:12;15.10;1.00
16388;DHT22;8303;53.446;9.988;2023-05-10T10:27:45;15.00;1.00
16388;DHT22;8303;53.446;9.988;2023-05-10T10:30:21;15.10;1.00
16388;DHT22;8303;53.446;9.988;2023-05-10T10:33:06;15.10;1.00
16388;DHT22;8303;53.446;9.988;2023-05-10T10:35:37;15.10;1.00
16388;DHT22;8303;53.446;9.988;2023-05-10T10:38:04;15.00;1.00
16388;DHT22;8303;53.446;9.988;2023-05-10T10:40:34;14.90;1.00
16388;DHT22;8303;53.446;9.988;2023-05-10T10:43:22;14.90;1.00
16388;DHT22;8303;53.446;9.988;2023-05-10T10:46:10;15.10;1.00
16388;DHT22;8303;53.446;9.988;2023-05-10T10:48:39;15.00;1.00
16388;DHT22;8303;53.446;9.988;2023-05-10T10:51:07;15.10;1.00
16388;DHT22;8303;53.446;9.988;2023-05-10T10:53:34;15.30;1.00
16388;DHT22;8303;53.446;9.988;2023-05-10T10:56:08;15.40;1.00
16388;DHT22;8303;53.446;9.988;2023-05-10T10:58:36;15.60;1.00
16388;DHT22;8303;53.446;9.988;2023-05-10T11:01:11;15.80;1.00
16388;DHT22;8303;53.446;9.988;2023-05-10T11:03:40;16.00;1.00
16388;DHT22;8303;53.446;9.988;2023-05-10T11:06:07;16.20;1.00
16388;DHT22;8303;53.446;9.988;2023-05-10T11:08:41;16.40;1.00
16388;DHT22;8303;53.446;9.988;2023-05-10T11:11:09;15.90;1.00
16388;DHT22;8303;53.446;9.988;2023-05-10T11:13:41;15.90;1.00
16388;DHT22;8303;53.446;9.988;2023-05-10T11:16:16;15.90;1.00
16388;DHT22;8303;53.446;9.988;2023-05-10T11:18:57;15.90;1.00
16388;DHT22;8303;53.446;9.988;2023-05-10T11:21:25;15.80;1.00
16388;DHT22;8303;53.446;9.988;2023-05-10T11:23:55;15.80;1.00
16388;DHT22;8303;53.446;9.988;2023-05-10T11:26:23;15.80;1.00
16388;DHT22;8303;53.446;9.988;2023-05-10T11:28:52;15.90;1.00
16388;DHT22;8303;53.446;9.988;2023-05-10T11:31:20;15.80;1.00
16388;DHT22;8303;53.446;9.988;2023-05-10T11:33:48;15.70;1.00
16388;DHT22;8303;53.446;9.988;2023-05-10T11:36:18;15.60;1.00
16388;DHT22;8303;53.446;9.988;2023-05-10T11:38:46;15.70;1.00
16388;DHT22;8303;53.446;9.988;2023-05-10T11:41:13;15.70;1.00
16388;DHT22;8303;53.446;9.988;2023-05-10T11:43:40;15.60;1.00
16388;DHT22;8303;53.446;9.988;2023-05-10T11:46:09;15.70;1.00
16388;DHT22;8303;53.446;9.988;2023-05-10T11:48:37;15.90;1.00
16388;DHT22;8303;53.446;9.988;2023-05-10T11:51:05;15.90;1.00
16388;DHT22;8303;53.446;9.988;2023-05-10T11:53:34;16.00;1.00
16388;DHT22;8303;53.446;9.988;2023-05-10T11:56:05;16.10;1.00
16388;DHT22;8303;53.446;9.988;2023-05-10T11:58:32;16.10;1.00
16388;DHT22;8303;53.446;9.988;2023-05-10T12:00:59;16.10;1.00
16388;DHT22;8303;53.446;9.988;2023-05-10T12:03:27;16.20;1.00
16388;DHT22;8303;53.446;9.988;2023-05-10T12:05:55;16.20;1.00
16388;DHT22;8303;53.446;9.988;2023-05-10T12:08:23;16.10;1.00
16388;DHT22;8303;53.446;9.988;2023-05-10T12:10:52;16.30;1.00
16388;DHT22;8303;53.446;9.988;2023-05-10T12:13:20;16.40;1.00
16388;DHT22;8303;53.446;9.988;2023-05-10T12:15:47;16.40;1.00
16388;DHT22;8303;53.446;9.988;2023-05-10T12:18:14;16.50;1.00
16388;DHT22;8303;53.446;9.988;2023-05-10T12:20:42;16.50;1.00
16388;DHT22;8303;53.446;9.988;2023-05-10T12:23:09;16.40;1.00
16388;DHT22;8303;53.446;9.988;2023-05-10T12:25:37;16.40;1.00
16388;DHT22;8303;53.446;9.988;2023-05-10T12:28:08;16.40;1.00
16388;DHT22;8303;53.446;9.988;2023-05-10T12:30:37;16.60;1.00
16388;DHT22;8303;53.446;9.988;2023-05-10T12:33:08;16.60;1.00
16388;DHT22;8303;53.446;9.988;2023-05-10T12:35:44;16.60;1.00
16388;DHT22;8303;53.446;9.988;2023-05-10T12:38:25;16.50;1.00
16388;DHT22;8303;53.446;9.988;2023-05-10T12:40:54;16.60;1.00
16388;DHT22;8303;53.446;9.988;2023-05-10T12:43:23;16.70;1.00
16388;DHT22;8303;53.446;9.988;2023-05-10T12:45:50;16.80;1.00
16388;DHT22;8303;53.446;9.988;2023-05-10T12:48:16;17.00;1.00
16388;DHT22;8303;53.446;9.988;2023-05-10T12:50:43;17.10;1.00
16388;DHT22;8303;53.446;9.988;2023-05-10T12:53:10;17.20;1.00
16388;DHT22;8303;53.446;9.988;2023-05-10T12:55:38;17.30;1.00
16388;DHT22;8303;53.446;9.988;2023-05-10T12:58:05;17.40;1.00
16388;DHT22;8303;53.446;9.988;2023-05-10T13:00:34;17.20;1.00
16388;DHT22;8303;53.446;9.988;2023-05-10T13:03:01;17.50;1.00
16388;DHT22;8303;53.446;9.988;2023-05-10T13:05:27;17.50;1.00
16388;DHT22;8303;53.446;9.988;2023-05-10T13:07:54;17.50;1.00
16388;DHT22;8303;53.446;9.988;2023-05-10T13:10:21;17.40;1.00
16388;DHT22;8303;53.446;9.988;2023-05-10T13:12:49;17.40;1.00
16388;DHT22;8303;53.446;9.988;2023-05-10T13:15:16;17.30;1.00
16388;DHT22;8303;53.446;9.988;2023-05-10T13:17:44;17.40;1.00
16388;DHT22;8303;53.446;9.988;2023-05-10T13:20:11;17.40;1.00
16388;DHT22;8303;53.446;9.988;2023-05-10T13:22:38;17.40;1.00
16388;DHT22;8303;53.446;9.988;2023-05-10T13:25:05;17.30;1.00
16388;DHT22;8303;53.446;9.988;2023-05-10T13:27:33;17.20;1.00
16388;DHT22;8303;53.446;9.988;2023-05-10T13:30:02;17.20;1.00
16388;DHT22;8303;53.446;9.988;2023-05-10T13:32:29;17.20;1.00
16388;DHT22;8303;53.446;9.988;2023-05-10T13:34:58;17.30;1.00
16388;DHT22;8303;53.446;9.988;2023-05-10T13:37:25;17.40;1.00
16388;DHT22;8303;53.446;9.988;2023-05-10T13:39:52;17.40;1.00
16388;DHT22;8303;53.446;9.988;2023-05-10T13:42:19;17.50;1.00
16388;DHT22;8303;53.446;9.988;2023-05-10T13:44:46;17.60;1.00
16388;DHT22;8303;53.446;9.988;2023-05-10T13:47:14;17.80;1.00
16388;DHT22;8303;53.446;9.988;2023-05-10T13:49:41;18.10;1.00
16388;DHT22;8303;53.446;9.988;2023-05-10T13:52:09;18.50;1.00
16388;DHT22;8303;53.446;9.988;2023-05-10T13:54:38;18.80;1.00
16388;DHT22;8303;53.446;9.988;2023-05-10T13:57:05;19.00;1.00
16388;DHT22;8303;53.446;9.988;2023-05-10T13:59:32;19.40;1.00
16388;DHT22;8303;53.446;9.988;2023-05-10T14:01:59;19.20;1.00
16388;DHT22;8303;53.446;9.988;2023-05-10T14:04:27;19.00;1.00
16388;DHT22;8303;53.446;9.988;2023-05-10T14:06:54;18.90;1.00
16388;DHT22;8303;53.446;9.988;2023-05-10T14:09:22;18.90;1.00
16388;DHT22;8303;53.446;9.988;2023-05-10T14:11:49;19.10;1.00
16388;DHT22;8303;53.446;9.988;2023-05-10T14:14:16;19.10;1.00
16388;DHT22;8303;53.446;9.988;2023-05-10T14:16:44;19.00;1.00
16388;DHT22;8303;53.446;9.988;2023-05-10T14:19:12;18.60;1.00
16388;DHT22;8303;53.446;9.988;2023-05-10T14:21:38;18.40;1.00
16388;DHT22;8303;53.446;9.988;2023-05-10T14:24:05;18.40;1.00
16388;DHT22;8303;53.446;9.988;2023-05-10T14:26:34;18.00;1.00
16388;DHT22;8303;53.446;9.988;2023-05-10T14:29:01;18.00;1.00
16388;DHT22;8303;53.446;9.988;2023-05-10T14:31:28;18.10;1.00
16388;DHT22;8303;53.446;9.988;2023-05-10T14:33:56;18.50;1.00
16388;DHT22;8303;53.446;9.988;2023-05-10T14:36:23;18.70;1.00
16388;DHT22;8303;53.446;9.988;2023-05-10T14:38:50;18.40;1.00
16388;DHT22;8303;53.446;9.988;2023-05-10T14:41:17;18.40;1.00
16388;DHT22;8303;53.446;9.988;2023-05-10T14:43:45;18.70;1.00
16388;DHT22;8303;53.446;9.988;2023-05-10T14:46:12;18.80;1.00
16388;DHT22;8303;53.446;9.988;2023-05-10T14:48:39;19.00;1.00
16388;DHT22;8303;53.446;9.988;2023-05-10T14:51:06;19.00;1.00
16388;DHT22;8303;53.446;9.988;2023-05-10T14:53:33;19.10;1.00
16388;DHT22;8303;53.446;9.988;2023-05-10T14:56:00;18.90;1.00
16388;DHT22;8303;53.446;9.988;2023-05-10T14:58:28;18.80;1.00
16388;DHT22;8303;53.446;9.988;2023-05-10T15:00:57;18.70;1.00
16388;DHT22;8303;53.446;9.988;2023-05-10T15:03:23;18.90;1.00
16388;DHT22;8303;53.446;9.988;2023-05-10T15:05:51;18.80;1.00
16388;DHT22;8303;53.446;9.988;2023-05-10T15:08:18;18.80;1.00
16388;DHT22;8303;53.446;9.988;2023-05-10T15:10:45;18.90;1.00
16388;DHT22;8303;53.446;9.988;2023-05-10T15:13:13;18.80;1.00
16388;DHT22;8303;53.446;9.988;2023-05-10T15:15:40;18.70;1.00
16388;DHT22;8303;53.446;9.988;2023-05-10T15:18:08;18.50;1.00
16388;DHT22;8303;53.446;9.988;2023-05-10T15:20:35;18.30;1.00
16388;DHT22;8303;53.446;9.988;2023-05-10T15:23:02;18.10;1.00
16388;DHT22;8303;53.446;9.988;2023-05-10T15:25:29;17.80;1.00
16388;DHT22;8303;53.446;9.988;2023-05-10T15:27:56;17.70;1.00
16388;DHT22;8303;53.446;9.988;2023-05-10T15:30:23;17.60;1.00
16388;DHT22;8303;53.446;9.988;2023-05-10T15:32:50;17.50;1.00
16388;DHT22;8303;53.446;9.988;2023-05-10T15:35:19;17.50;1.00
16388;DHT22;8303;53.446;9.988;2023-05-10T15:37:47;17.50;1.00
16388;DHT22;8303;53.446;9.988;2023-05-10T15:40:14;17.50;1.00
16388;DHT22;8303;53.446;9.988;2023-05-10T15:42:41;17.40;1.00
16388;DHT22;8303;53.446;9.988;2023-05-10T15:45:09;17.30;1.00
16388;DHT22;8303;53.446;9.988;2023-05-10T15:47:36;17.00;1.00
16388;DHT22;8303;53.446;9.988;2023-05-10T15:50:06;16.80;1.00
16388;DHT22;8303;53.446;9.988;2023-05-10T15:52:34;16.50;1.00
16388;DHT22;8303;53.446;9.988;2023-05-10T15:55:01;16.30;1.00
16388;DHT22;8303;53.446;9.988;2023-05-10T15:57:29;16.10;1.00
16388;DHT22;8303;53.446;9.988;2023-05-10T15:59:56;16.00;1.00
16388;DHT22;8303;53.446;9.988;2023-05-10T16:02:23;15.90;1.00
16388;DHT22;8303;53.446;9.988;2023-05-10T16:04:50;15.80;13.30
16388;DHT22;8303;53.446;9.988;2023-05-10T16:07:17;15.80;37.80
16388;DHT22;8303;53.446;9.988;2023-05-10T16:09:45;15.70;47.00
16388;DHT22;8303;53.446;9.988;2023-05-10T16:12:13;15.70;67.50
16388;DHT22;8303;53.446;9.988;2023-05-10T16:14:40;15.80;96.10
16388;DHT22;8303;53.446;9.988;2023-05-10T16:17:07;15.80;99.90
16388;DHT22;8303;53.446;9.988;2023-05-10T16:19:34;15.90;99.90
16388;DHT22;8303;53.446;9.988;2023-05-10T16:22:01;16.00;99.90
16388;DHT22;8303;53.446;9.988;2023-05-10T16:24:28;16.10;96.30
16388;DHT22;8303;53.446;9.988;2023-05-10T16:26:57;16.00;66.80
16388;DHT22;8303;53.446;9.988;2023-05-10T16:29:24;16.10;68.40
16388;DHT22;8303;53.446;9.988;2023-05-10T16:31:50;16.00;79.60
16388;DHT22;8303;53.446;9.988;2023-05-10T16:34:18;15.90;93.90
16388;DHT22;8303;53.446;9.988;2023-05-10T16:36:48;15.90;99.90
16388;DHT22;8303;53.446;9.988;2023-05-10T16:39:15;15.90;99.90
16388;DHT22;8303;53.446;9.988;2023-05-10T16:41:42;15.80;99.90
16388;DHT22;8303;53.446;9.988;2023-05-10T16:44:11;15.70;99.90
16388;DHT22;8303;53.446;9.988;2023-05-10T16:46:38;15.70;99.90
16388;DHT22;8303;53.446;9.988;2023-05-10T16:49:05;15.70;99.90
16388;DHT22;8303;53.446;9.988;2023-05-10T16:51:33;15.70;99.90
16388;DHT22;8303;53.446;9.988;2023-05-10T16:54:00;15.70;99.90
16388;DHT22;8303;53.446;9.988;2023-05-10T16:56:27;15.80;99.90
16388;DHT22;8303;53.446;9.988;2023-05-10T16:58:54;16.10;99.90
16388;DHT22;8303;53.446;9.988;2023-05-10T17:01:22;16.50;99.90
16388;DHT22;8303;53.446;9.988;2023-05-10T17:03:49;16.60;99.90
16388;DHT22;8303;53.446;9.988;2023-05-10T17:06:16;16.80;97.40
16388;DHT22;8303;53.446;9.988;2023-05-10T17:08:43;17.30;34.30
16388;DHT22;8303;53.446;9.988;2023-05-10T17:11:10;17.40;1.00
16388;DHT22;8303;53.446;9.988;2023-05-10T17:13:37;17.30;1.00
16388;DHT22;8303;53.446;9.988;2023-05-10T17:16:04;17.10;1.00
16388;DHT22;8303;53.446;9.988;2023-05-10T17:18:33;16.90;1.00
16388;DHT22;8303;53.446;9.988;2023-05-10T17:21:01;16.80;1.00
16388;DHT22;8303;53.446;9.988;2023-05-10T17:23:27;16.70;10.30
16388;DHT22;8303;53.446;9.988;2023-05-10T17:25:54;16.50;20.00
16388;DHT22;8303;53.446;9.988;2023-05-10T17:28:21;16.30;43.40
16388;DHT22;8303;53.446;9.988;2023-05-10T17:30:54;16.30;83.40
16388;DHT22;8303;53.446;9.988;2023-05-10T17:33:22;16.20;94.80
16388;DHT22;8303;53.446;9.988;2023-05-10T17:35:50;16.10;99.90
16388;DHT22;8303;53.446;9.988;2023-05-10T17:38:17;16.10;99.90
16388;DHT22;8303;53.446;9.988;2023-05-10T17:40:44;15.90;71.90
16388;DHT22;8303;53.446;9.988;2023-05-10T17:43:11;15.60;53.50
16388;DHT22;8303;53.446;9.988;2023-05-10T17:45:38;15.30;57.10
16388;DHT22;8303;53.446;9.988;2023-05-10T17:48:05;15.10;23.50
16388;DHT22;8303;53.446;9.988;2023-05-10T17:50:32;14.90;55.50
16388;DHT22;8303;53.446;9.988;2023-05-10T17:53:01;14.70;63.60
16388;DHT22;8303;53.446;9.988;2023-05-10T17:55:28;14.60;66.80
16388;DHT22;8303;53.446;9.988;2023-05-10T17:57:55;14.50;75.30
16388;DHT22;8303;53.446;9.988;2023-05-10T18:00:24;14.50;99.90
16388;DHT22;8303;53.446;9.988;2023-05-10T18:02:51;14.40;99.90
16388;DHT22;8303;53.446;9.988;2023-05-10T18:05:18;14.30;99.90
16388;DHT22;8303;53.446;9.988;2023-05-10T18:07:45;14.30;99.90
16388;DHT22;8303;53.446;9.988;2023-05-10T18:10:13;14.20;99.90
16388;DHT22;8303;53.446;9.988;2023-05-10T18:12:40;14.10;99.90
16388;DHT22;8303;53.446;9.988;2023-05-10T18:15:08;14.00;99.90
16388;DHT22;8303;53.446;9.988;2023-05-10T18:17:35;13.90;99.90
16388;DHT22;8303;53.446;9.988;2023-05-10T18:20:02;13.90;99.90
16388;DHT22;8303;53.446;9.988;2023-05-10T18:22:30;13.90;99.90
16388;DHT22;8303;53.446;9.988;2023-05-10T18:24:57;13.90;99.90
16388;DHT22;8303;53.446;9.988;2023-05-10T18:27:26;13.90;99.90
16388;DHT22;8303;53.446;9.988;2023-05-10T18:29:53;13.90;99.90
16388;DHT22;8303;53.446;9.988;2023-05-10T18:32:20;14.00;99.90
16388;DHT22;8303;53.446;9.988;2023-05-10T18:34:47;14.00;99.90
16388;DHT22;8303;53.446;9.988;2023-05-10T18:37:14;13.90;99.90
16388;DHT22;8303;53.446;9.988;2023-05-10T18:39:41;13.90;99.90
16388;DHT22;8303;53.446;9.988;2023-05-10T18:42:08;13.90;99.90
16388;DHT22;8303;53.446;9.988;2023-05-10T18:44:36;13.90;99.90
16388;DHT22;8303;53.446;9.988;2023-05-10T18:47:04;13.90;99.90
16388;DHT22;8303;53.446;9.988;2023-05-10T18:49:31;13.80;99.90
16388;DHT22;8303;53.446;9.988;2023-05-10T18:51:58;13.80;99.90
16388;DHT22;8303;53.446;9.988;2023-05-10T18:54:24;13.70;99.90
16388;DHT22;8303;53.446;9.988;2023-05-10T18:56:51;13.60;99.90
16388;DHT22;8303;53.446;9.988;2023-05-10T18:59:18;13.60;99.90
16388;DHT22;8303;53.446;9.988;2023-05-10T19:01:47;13.60;99.90
16388;DHT22;8303;53.446;9.988;2023-05-10T19:04:13;13.50;99.90
16388;DHT22;8303;53.446;9.988;2023-05-10T19:06:40;13.50;99.90
16388;DHT22;8303;53.446;9.988;2023-05-10T19:09:07;13.50;99.90
16388;DHT22;8303;53.446;9.988;2023-05-10T19:11:35;13.60;99.90
16388;DHT22;8303;53.446;9.988;2023-05-10T19:14:02;13.50;99.90
16388;DHT22;8303;53.446;9.988;2023-05-10T19:16:30;13.50;99.90
16388;DHT22;8303;53.446;9.988;2023-05-10T19:19:00;13.40;99.90
16388;DHT22;8303;53.446;9.988;2023-05-10T19:21:27;13.40;99.90
16388;DHT22;8303;53.446;9.988;2023-05-10T19:23:54;13.30;99.90
16388;DHT22;8303;53.446;9.988;2023-05-10T19:26:21;13.30;99.90
16388;DHT22;8303;53.446;9.988;2023-05-10T19:28:49;13.30;99.90
16388;DHT22;8303;53.446;9.988;2023-05-10T19:31:17;13.30;99.90
16388;DHT22;8303;53.446;9.988;2023-05-10T19:33:44;13.30;99.90
16388;DHT22;8303;53.446;9.988;2023-05-10T19:36:12;13.30;99.90
16388;DHT22;8303;53.446;9.988;2023-05-10T19:38:39;13.20;99.90
16388;DHT22;8303;53.446;9.988;2023-05-10T19:41:06;13.30;99.90
16388;DHT22;8303;53.446;9.988;2023-05-10T19:43:34;13.30;99.90
16388;DHT22;8303;53.446;9.988;2023-05-10T19:46:02;13.20;99.90
16388;DHT22;8303;53.446;9.988;2023-05-10T19:48:29;13.10;99.90
16388;DHT22;8303;53.446;9.988;2023-05-10T19:50:59;13.10;99.90
16388;DHT22;8303;53.446;9.988;2023-05-10T19:53:30;13.00;99.90
16388;DHT22;8303;53.446;9.988;2023-05-10T19:56:02;13.00;99.90
16388;DHT22;8303;53.446;9.988;2023-05-10T19:58:29;13.00;99.90
16388;DHT22;8303;53.446;9.988;2023-05-10T20:00:56;12.90;99.90
16388;DHT22;8303;53.446;9.988;2023-05-10T20:03:23;12.90;99.90
16388;DHT22;8303;53.446;9.988;2023-05-10T20:05:50;12.80;99.90
16388;DHT22;8303;53.446;9.988;2023-05-10T20:08:17;12.70;99.90
16388;DHT22;8303;53.446;9.988;2023-05-10T20:10:46;12.70;99.90
16388;DHT22;8303;53.446;9.988;2023-05-10T20:13:13;12.60;99.90
16388;DHT22;8303;53.446;9.988;2023-05-10T20:15:39;12.60;99.90
16388;DHT22;8303;53.446;9.988;2023-05-10T20:18:06;12.60;99.90
16388;DHT22;8303;53.446;9.988;2023-05-10T20:20:33;12.50;99.90
16388;DHT22;8303;53.446;9.988;2023-05-10T20:23:00;12.50;99.90
16388;DHT22;8303;53.446;9.988;2023-05-10T20:25:27;12.50;99.90
16388;DHT22;8303;53.446;9.988;2023-05-10T20:27:55;12.40;99.90
